Hauptseite
METAR-TAF:

METAR-TAF

Flughäfen :

Fliegerhorst Holzdorf

Holzdorf, Deutschland

Breite: 51-46N, Länge: 013-11E, Höhe: 79 m

Beobachtung

Neuester Wetterbericht von vor 24 Minuten, um 13:20 UTC
Wind 8 kt aus West
Temperatur 4°C
Luftfeuchtigkeit 70%
Luftdruck 1022 hPa
Sichtweite 10 km oder mehr
Leicht bewölkt in der Höhe von 30000 ft

METAR: ETSH 241320Z 26008KT 9999 FEW300 04/M01 Q1022 BLU+

Zeit: 14:44 (13:44 UTC)

Prognose

Neuester Wetterbericht von vor 3 Stunden und 12 Minuten, um 10:32 UTC
Gültige Prognose vom 24 um 09 UTC bis 24 um 18 UTC
Wind 6 kt aus Süd
Sichtweite: 1100 m
Leicht bewölkt in der Höhe von 2000 ft
Aufgelockert bewölkt in der Höhe von 26000 ft

TAF: ETSH 241032Z 2409/2418 18006KT 8000 NSW FEW020 SCT260 CANCEL 1100

Wetterbeobachtungen und Prognosen von mehr als 4000 Flughäfen (METAR und TAF Bericht).

Die verfügbaren Stationen werden durch gelbe und rote Markierungen auf der Karte dargestellt.

Führen Sie die Maus auf sie, um den Namen der Station zu sehen.

Darauf klicken, um die Beobachtung von Wetterbeobachtungen und Prognosen zu sehen.

Um die Karte zu ändern : klicken Sie auf den grünen Tasten mit einem schwarzen Kreuz Zum Vergrößern, auf den grünen Button mit einem Gedankenstrich zu verkleinern, oder auf die grünen Pfeile für benachbarte Karten.


METAR-TAF: